首页
METAR-TAF:

METAR-TAF

机场 :

University Park Airport

州学院, 宾夕法尼亚州, 美国

纬度: 40-51N, 经度: 077-51W, 海拔: 378米

当前天气观测

该预报发布于42分钟前的18:53 UTC
风速11节,风向西北,有时为22节阵风
温度 4°C
湿度 35%
气压 1025 hPa
能見度: 16.1公里
天空无云

METAR: KUNV 191853Z 31011G22KT 10SM SKC 04/M10 A3028

时间: 14:35 (19:35 UTC)

预报

该预报发布于1小时和35分钟前的18:00 UTC
预报有效从19日的 18点(UTC)到 20日的 18点(UTC)
风速15节,风向西北,有时为20节阵风
能見度: 10公里
散云层高于25000英尺
从 20日的 0000点(UTC)
风速8节,风向西转西北
能見度: 10公里
多云层高于15000英尺
从 20日的 1300点(UTC)
风速9节,风向西转西北,有时为15节阵风
能見度: 10公里
多云层高于4000英尺

TAF: KUNV 191800Z 1918/2018 31015G20KT P6SM SCT250 FM200000 29008KT P6SM BKN150 FM201300 30009G15KT P6SM BKN040

超过4000个机场的气象观测和天气预报(METAR&TAF报告)。

可查询的气象台以黄色和红色小点在地图上表示。

将鼠标移到小点上方,可查看气象台名称。

然后点击查看天气观测和预报。

如需切换地图:点击带黑十字的绿色按钮放大地图;点击带横线的绿色按钮缩小地图;或者点击绿色箭头查看邻近地区的地图。


METAR-TAF: